地図

経路データ

SID SEASON NUMBER BASIN SUBBASIN NAME ISO_TIME NATURE LAT LON WMO_WIND WMO_PRES WMO_AGENCY TRACK_TYPE DIST2LAND LANDFALL IFLAG USA_AGENCY USA_ATCF_ID USA_LAT USA_LON USA_RECORD USA_STATUS USA_WIND USA_PRES USA_SSHS USA_R34_NE USA_R34_SE USA_R34_SW USA_R34_NW USA_R50_NE USA_R50_SE USA_R50_SW USA_R50_NW USA_R64_NE USA_R64_SE USA_R64_SW USA_R64_NW USA_POCI USA_ROCI USA_RMW USA_EYE TOKYO_LAT TOKYO_LON TOKYO_GRADE TOKYO_WIND TOKYO_PRES TOKYO_R50_DIR TOKYO_R50_LONG TOKYO_R50_SHORT TOKYO_R30_DIR TOKYO_R30_LONG TOKYO_R30_SHORT TOKYO_LAND CMA_LAT CMA_LON CMA_CAT CMA_WIND CMA_PRES HKO_LAT HKO_LON HKO_CAT HKO_WIND HKO_PRES NEWDELHI_LAT NEWDELHI_LON NEWDELHI_GRADE NEWDELHI_WIND NEWDELHI_PRES NEWDELHI_CI NEWDELHI_DP NEWDELHI_POCI REUNION_LAT REUNION_LON REUNION_TYPE REUNION_WIND REUNION_PRES REUNION_TNUM REUNION_CI REUNION_RMW REUNION_R34_NE REUNION_R34_SE REUNION_R34_SW REUNION_R34_NW REUNION_R50_NE REUNION_R50_SE REUNION_R50_SW REUNION_R50_NW REUNION_R64_NE REUNION_R64_SE REUNION_R64_SW REUNION_R64_NW BOM_LAT BOM_LON BOM_TYPE BOM_WIND BOM_PRES BOM_TNUM BOM_CI BOM_RMW BOM_R34_NE BOM_R34_SE BOM_R34_SW BOM_R34_NW BOM_R50_NE BOM_R50_SE BOM_R50_SW BOM_R50_NW BOM_R64_NE BOM_R64_SE BOM_R64_SW BOM_R64_NW BOM_ROCI BOM_POCI BOM_EYE BOM_POS_METHOD BOM_PRES_METHOD NADI_LAT NADI_LON NADI_CAT NADI_WIND NADI_PRES WELLINGTON_LAT WELLINGTON_LON WELLINGTON_WIND WELLINGTON_PRES DS824_LAT DS824_LON DS824_STAGE DS824_WIND DS824_PRES TD9636_LAT TD9636_LON TD9636_STAGE TD9636_WIND TD9636_PRES TD9635_LAT TD9635_LON TD9635_WIND TD9635_PRES TD9635_ROCI NEUMANN_LAT NEUMANN_LON NEUMANN_CLASS NEUMANN_WIND NEUMANN_PRES MLC_LAT MLC_LON MLC_CLASS MLC_WIND MLC_PRES USA_GUST BOM_GUST BOM_GUST_PER REUNION_GUST REUNION_GUST_PER USA_SEAHGT USA_SEARAD_NE USA_SEARAD_SE USA_SEARAD_SW USA_SEARAD_NW STORM_SPEED STORM_DIR
1973325S09091 1974 127 SI WA ANNIE 1973-11-21 00:00:00 TS -8.99945 90.9996 main 1197 1197 ______P__O__O_ -1 -8.99836 90.9989 -9.00000 91.0000 TC 15 1006 -9.00000 91.0000 TC 15 1006 8 0
1973325S09091 1974 127 SI WA ANNIE 1973-11-21 00:01:00 TS -9.00121 91.0008 20 1006 bom main 1197 1197 ______O__O__O_ -1 -9.00000 91.0000 20 20 1006 1.00000 -9.00000 91.0000 TC 15 1006 -9.00000 91.0000 TC 15 1006 8 146
1973325S09091 1974 127 SI WA ANNIE 1973-11-21 03:00:00 TS -9.31336 91.2133 20 1005 bom main 1204 1204 ______O__P__P_ -1 -9.30000 91.2000 20 20 1005 1.00000 -9.21367 91.1459 TC 19 1004 -9.21367 91.1459 TC 19 1004 7 147
1973325S09091 1974 127 SI WA ANNIE 1973-11-21 06:00:00 TS -9.60000 91.4000 20 1003 bom main 1213 1213 ______O__O__O_ -1 -9.60000 91.4000 20 20 1003 1.00000 -9.60000 91.4000 TC 25 1003 -9.60000 91.4000 TC 25 1003 6 149
1973325S09091 1974 127 SI WA ANNIE 1973-11-21 09:00:00 TS -9.80999 91.5100 20 1001 bom main 1222 1222 ______O__P__P_ -1 -9.80000 91.5000 20 20 1001 1.00000 -9.81513 91.5152 TC 25 1003 -9.81513 91.5152 TC 25 1003 4 154
1973325S09091 1974 127 SI WA ANNIE 1973-11-21 12:00:00 TS -10.0000 91.6000 20 1003 bom main 1231 1231 ______O__O__O_ -1 -10.0000 91.6000 20 20 1003 1.00000 -10.0000 91.6000 TC 25 1003 -10.0000 91.6000 TC 25 1003 4 155
1973325S09091 1974 127 SI WA ANNIE 1973-11-21 15:00:00 TS -10.2000 91.6950 20 1005 bom main 1241 1241 ______O__P__P_ -1 -10.2000 91.7000 20 20 1005 1.00000 -10.2000 91.6925 TC 22 1003 -10.2000 91.6925 TC 22 1003 4 154
1973325S09091 1974 127 SI WA ANNIE 1973-11-21 18:00:00 TS -10.4000 91.8000 20 1004 bom main 1251 1251 ______O__O__O_ -1 -10.4000 91.8000 20 20 1004 1.00000 -10.4000 91.8000 TC 20 1004 -10.4000 91.8000 TC 20 1004 5 152
1973325S09091 1974 127 SI WA ANNIE 1973-11-21 21:00:00 TS -10.6100 91.9183 20 1005 bom main 1262 1262 ______O__P__P_ -1 -10.6000 91.9000 20 20 1005 1.00000 -10.6641 91.9926 TC 20 1004 -10.6641 91.9926 TC 20 1004 5 144
1973325S09091 1974 127 SI WA ANNIE 1973-11-22 00:00:00 TS -10.7997 92.0996 main 1266 1266 ______P__O__O_ -1 -10.7991 92.0988 20 20 1004 -10.8000 92.1000 TC 20 1004 -10.8000 92.1000 TC 20 1004 5 137
1973325S09091 1974 127 SI WA ANNIE 1973-11-22 00:01:00 TS -10.8006 92.1008 20 1004 bom main 1266 1260 ______O__O__O_ -1 -10.8000 92.1000 20 20 1004 1.00000 -10.8000 92.1000 TC 20 1004 -10.8000 92.1000 TC 20 1004 5 118
1973325S09091 1974 127 SI WA ANNIE 1973-11-22 03:00:00 TS -10.9150 92.3233 25 1002 bom main 1262 1253 ______O__P__P_ -1 -10.9000 92.3000 20 25 1002 1.00000 -10.8730 92.2691 TC 24 1002 -10.8730 92.2691 TC 22 1002 5 112
1973325S09091 1974 127 SI WA ANNIE 1973-11-22 06:00:00 TS -11.0000 92.6000 25 1001 bom main 1253 1240 ______O__O__O_ -1 -11.0000 92.6000 20 25 1001 1.50000 -11.0000 92.6000 TC 30 1001 -11.0000 92.6000 TC 25 1001 5 104
1973325S09091 1974 127 SI WA ANNIE 1973-11-22 09:00:00 TS -11.0433 92.8283 25 1000 bom main 1240 1232 ______O__P__P_ -1 -11.0000 92.8000 20 25 1000 1.50000 -11.0650 92.8426 TC 27 1001 -11.0650 92.8426 TC 25 1001 5 102
1973325S09091 1974 127 SI WA ANNIE 1973-11-22 12:00:00 TS -11.1000 93.1000 25 1002 bom main 1232 1215 ______O__O__O_ -1 -11.1000 93.1000 20 25 1002 1.50000 -11.1000 93.1000 TC 25 1002 -11.1000 93.1000 TC 25 1002 6 96
1973325S09091 1974 127 SI WA ANNIE 1973-11-22 15:00:00 TS -11.1050 93.4000 25 1004 bom main 1215 1199 ______O__P__P_ -1 -11.1000 93.4000 20 25 1004 1.50000 -11.1075 93.4000 TC 25 1002 -11.1075 93.4000 TC 25 1002 6 90
1973325S09091 1974 127 SI WA ANNIE 1973-11-22 18:00:00 TS -11.1000 93.7000 25 1003 bom main 1199 1184 ______O__O__O_ -1 -11.1000 93.7000 20 25 1003 1.50000 -11.1000 93.7000 TC 25 1003 -11.1000 93.7000 TC 25 1003 6 89
1973325S09091 1974 127 SI WA ANNIE 1973-11-22 21:00:00 TS -11.1000 93.9767 25 1003 bom main 1184 1174 ______O__P__P_ -1 -11.1000 94.0000 20 25 1003 1.50000 -11.1000 94.0355 TC 25 1003 -11.1000 94.0355 TC 25 1003 5 90
1973325S09091 1974 127 SI WA ANNIE 1973-11-23 00:00:00 TS -11.1000 94.1997 main 1174 1174 ______P__O__O_ -1 -11.1000 94.1990 20 25 1003 -11.1000 94.2000 TC 25 1003 -11.1000 94.2000 TC 25 1003 4 90
1973325S09091 1974 127 SI WA ANNIE 1973-11-23 00:01:00 TS -11.1000 94.2008 25 1003 bom main 1174 1164 ______O__O__O_ -1 -11.1000 94.2000 20 25 1003 1.50000 -11.1000 94.2000 TC 25 1003 -11.1000 94.2000 TC 25 1003 4 89
1973325S09091 1974 127 SI WA ANNIE 1973-11-23 03:00:00 TS -11.0950 94.4050 25 1001 bom main 1164 1154 ______O__P__P_ -1 -11.1000 94.4000 20 25 1001 1.50000 -11.0947 94.3353 TC 27 1001 -11.0947 94.3353 TC 27 1001 4 90
1973325S09091 1974 127 SI WA ANNIE 1973-11-23 06:00:00 TS -11.1000 94.6000 25 1000 bom main 1154 1145 ______O__O__O_ -1 -11.1000 94.6000 20 25 1000 1.50000 -11.1000 94.6000 TC 30 1000 -11.1000 94.6000 TC 30 1000 4 95
1973325S09091 1974 127 SI WA ANNIE 1973-11-23 09:00:00 TS -11.1283 94.8000 25 999 bom main 1145 1139 ______O__P__P_ -1 -11.1000 94.8000 20 25 999 2.00000 -11.1425 94.8001 TC 27 1001 -11.1425 94.8001 TC 27 1001 4 104
1973325S09091 1974 127 SI WA ANNIE 1973-11-23 12:00:00 TS -11.2000 95.0000 25 1002 bom main 1139 1123 ______O__O__O_ -1 -11.2000 95.0000 20 25 1002 2.00000 -11.2000 95.0000 TC 25 1002 -11.2000 95.0000 TC 25 1002 4 104
1973325S09091 1974 127 SI WA ANNIE 1973-11-23 15:00:00 TS -11.2283 95.2050 25 1003 bom main 1123 1116 ______O__P__P_ -1 -11.2000 95.2000 20 25 1003 2.00000 -11.2425 95.2075 TC 25 1002 -11.2425 95.2075 TC 25 1002 4 104
1973325S09091 1974 127 SI WA ANNIE 1973-11-23 18:00:00 TS -11.3000 95.4000 25 1002 bom main 1116 1109 ______O__O__O_ -1 -11.3000 95.4000 20 25 1002 2.00000 -11.3000 95.4000 TC 25 1002 -11.3000 95.4000 TC 25 1002 4 115
1973325S09091 1974 127 SI WA ANNIE 1973-11-23 21:00:00 TS -11.4000 95.5717 25 1003 bom main 1110 1110 ______O__P__P_ -1 -11.4000 95.6000 20 25 1003 2.00000 -11.4267 95.6034 TC 25 1002 -11.4267 95.6034 TC 25 1002 4 124
1973325S09091 1974 127 SI WA ANNIE 1973-11-24 00:00:00 TS -11.4999 95.6999 main 1111 1111 ______P__O__O_ -1 -11.4997 95.6995 20 25 1003 -11.5000 95.7000 TC 25 1003 -11.5000 95.7000 TC 25 1003 3 129
1973325S09091 1974 127 SI WA ANNIE 1973-11-24 00:01:00 TS -11.5003 95.7006 25 1003 bom main 1111 1104 ______O__O__O_ -1 -11.5000 95.7000 20 25 1003 2.00000 -11.5000 95.7000 TC 25 1003 -11.5000 95.7000 TC 25 1003 3 106
1973325S09091 1974 127 SI WA ANNIE 1973-11-24 03:00:00 TS -11.5383 95.8334 25 1001 bom main 1104 1096 ______O__P__P_ -1 -11.5000 95.8000 20 25 1001 2.00000 -11.5338 95.8015 TC 27 1001 -11.5338 95.8015 TC 27 1001 3 109
1973325S09091 1974 127 SI WA ANNIE 1973-11-24 06:00:00 TS -11.6000 96.0000 25 999 bom main 1098 1084 ______O__O__O_ -1 -11.6000 96.0000 20 25 999 2.00000 -11.6000 96.0000 TC 30 999 -11.6000 96.0000 TC 30 999 3 105
1973325S09091 1974 127 SI WA ANNIE 1973-11-24 09:00:00 TS -11.6283 96.1717 30 997 bom main 1084 1084 ______O__P__P_ -1 -11.6000 96.2000 20 30 997 2.50000 -11.6425 96.1576 TC 32 998 -11.6425 96.1576 TC 32 998 3 109
1973325S09091 1974 127 SI WA ANNIE 1973-11-24 12:00:00 TS -11.7000 96.3000 30 998 bom main 1085 1078 ______O__O__O_ -1 -11.7000 96.3000 20 30 998 2.50000 -11.7000 96.3000 TC 35 998 -11.7000 96.3000 TC 35 998 3 126
1973325S09091 1974 127 SI WA ANNIE 1973-11-24 15:00:00 TS -11.7950 96.4050 30 998 bom main 1086 1079 ______O__P__P_ -1 -11.8000 96.4000 20 30 998 2.50000 -11.7925 96.4075 TC 35 997 -11.7925 96.4075 TC 35 997 3 136
1973325S09091 1974 127 SI WA ANNIE 1973-11-24 18:00:00 TS -11.9000 96.5000 30 996 bom main 1087 1087 ______O__O__O_ -1 -11.9000 96.5000 20 30 996 2.50000 -11.9000 96.5000 TC 35 996 -11.9000 96.5000 TC 35 996 3 138
1973325S09091 1974 127 SI WA ANNIE 1973-11-24 21:00:00 TS -12.0050 96.6000 35 995 bom main 1089 1089 ______O__P__P_ -1 -12.0000 96.6000 30 35 995 3.00000 -12.0320 96.6320 TC 37 995 -12.0320 96.6320 TC 37 995 3 136
1973325S09091 1974 127 SI WA ANNIE 1973-11-25 00:00:00 TS -12.0998 96.6998 main 1091 1091 ______P__O__O_ -1 -12.0994 96.6994 30 44 994 -12.1000 96.7000 TC 40 994 -12.1000 96.7000 TC 40 994 3 134
1973325S09091 1974 127 SI WA ANNIE 1973-11-25 00:01:00 TS -12.1002 96.7004 45 994 bom main 1091 1084 ______O__O__O_ -1 -12.1000 96.7000 30 45 994 3.00000 -12.1000 96.7000 TC 40 994 -12.1000 96.7000 TC 40 994 2 124
1973325S09091 1974 127 SI WA ANNIE 1973-11-25 03:00:00 TS -12.1667 96.8000 50 994 bom main 1092 1086 ______O__P__P_ -1 -12.2000 96.8000 30 50 994 3.00000 -12.1285 96.7677 TC 40 994 -12.1285 96.7677 TC 40 994 2 117
1973325S09091 1974 127 SI WA ANNIE 1973-11-25 06:00:00 TS -12.2000 96.9000 50 994 bom main 1086 1079 ______O__O__O_ -1 -12.2000 96.9000 30 50 994 3.00000 -12.2000 96.9000 TC 40 994 -12.2000 96.9000 TC 40 994 2 123
1973325S09091 1974 127 SI WA ANNIE 1973-11-25 09:00:00 TS -12.2950 97.0000 50 994 bom main 1088 1081 ______O__P__P_ -1 -12.3000 97.0000 30 50 994 3.00000 -12.2925 97.0000 TC 40 994 -12.2925 97.0000 TC 40 994 3 136
1973325S09091 1974 127 SI WA ANNIE 1973-11-25 12:00:00 TS -12.4000 97.1000 45 994 bom main 1087 1085 ______O__O__O_ -1 -12.4000 97.1000 30 45 994 3.00000 -12.4000 97.1000 TC 40 994 -12.4000 97.1000 TC 40 994 3 137
1973325S09091 1974 127 SI WA ANNIE 1973-11-25 15:00:00 TS -12.5050 97.2000 45 994 bom main 1085 1082 ______O__P__P_ -1 -12.5000 97.2000 30 45 994 3.00000 -12.5075 97.2000 TC 40 994 -12.5075 97.2000 TC 40 994 3 136
1973325S09091 1974 127 SI WA ANNIE 1973-11-25 18:00:00 TS -12.6000 97.3000 45 994 bom main 1082 1080 ______O__O__O_ -1 -12.6000 97.3000 30 45 994 3.00000 -12.6000 97.3000 TC 40 994 -12.6000 97.3000 TC 40 994 3 133
1973325S09091 1974 127 SI WA ANNIE 1973-11-25 21:00:00 TS -12.6766 97.3900 40 994 bom main 1080 1072 ______O__P__P_ -1 -12.7000 97.4000 30 40 994 3.00000 -12.6714 97.4320 TC 40 994 -12.6714 97.4320 TC 40 994 2 117
1973325S09091 1974 127 SI WA ANNIE 1973-11-26 00:00:00 TS -12.6999 97.4997 main 1072 1072 ______P__O__O_ -1 -12.6998 97.4992 30 40 994 -12.7000 97.5000 TC 40 994 -12.7000 97.5000 TC 40 994 2 103
1973325S09091 1974 127 SI WA ANNIE 1973-11-26 00:01:00 TS -12.7001 97.5006 40 994 bom main 1072 1054 ______O__O__O_ -1 -12.7000 97.5000 30 40 994 3.00000 -12.7000 97.5000 TC 40 994 -12.7000 97.5000 TC 40 994 4 105
1973325S09091 1974 127 SI WA ANNIE 1973-11-26 03:00:00 TS -12.7483 97.6900 40 994 bom main 1054 1037 ______O__P__P_ -1 -12.8000 97.7000 30 40 994 3.00000 -12.7107 97.6353 TC 40 994 -12.7107 97.6353 TC 40 994 4 90
1973325S09091 1974 127 SI WA ANNIE 1973-11-26 06:00:00 TS -12.7000 97.9000 40 994 bom main 1037 1013 ______O__O__O_ -1 -12.7000 97.9000 30 40 994 3.00000 -12.7000 97.9000 TC 40 994 -12.7000 97.9000 TC 40 994 4 71
1973325S09091 1974 127 SI WA ANNIE 1973-11-26 09:00:00 TS -12.6100 98.1000 40 994 bom main 1013 990 ______O__P__P_ -1 -12.6000 98.1000 30 40 994 3.00000 -12.6150 98.1001 TC 40 994 -12.6150 98.1001 TC 40 994 4 63
1973325S09091 1974 127 SI WA ANNIE 1973-11-26 12:00:00 TS -12.5000 98.3000 40 994 bom main 990 966 ______O__O__O_ -1 -12.5000 98.3000 30 40 994 3.00000 -12.5000 98.3000 TC 40 994 -12.5000 98.3000 TC 40 994 4 62
1973325S09091 1974 127 SI WA ANNIE 1973-11-26 15:00:00 TS -12.4050 98.5000 40 994 bom main 966 942 ______O__P__P_ -1 -12.4000 98.5000 30 40 994 3.00000 -12.4075 98.5000 TC 40 994 -12.4075 98.5000 TC 40 994 4 63
1973325S09091 1974 127 SI WA ANNIE 1973-11-26 18:00:00 TS -12.3000 98.7000 40 994 bom main 942 918 ______O__O__O_ -1 -12.3000 98.7000 30 40 994 3.00000 -12.3000 98.7000 TC 40 994 -12.3000 98.7000 TC 40 994 5 59
1973325S09091 1974 127 SI WA ANNIE 1973-11-26 21:00:00 TS -12.1667 98.9000 40 994 bom main 918 887 ______O__P__P_ -1 -12.2000 98.9000 30 40 994 3.00000 -12.1073 98.9641 TC 40 994 -12.1073 98.9641 TC 40 994 5 52
1973325S09091 1974 127 SI WA ANNIE 1973-11-27 00:00:00 TS -12.0003 99.0996 main 887 887 ______P__O__O_ -1 -12.0009 99.0989 30 40 994 -12.0000 99.1000 TC 40 994 -12.0000 99.1000 TC 40 994 5 50
1973325S09091 1974 127 SI WA ANNIE 1973-11-27 00:01:00 TS -11.9995 99.1007 40 994 bom main 887 863 ______O__O__O_ -1 -12.0000 99.1000 30 40 994 3.00000 -12.0000 99.1000 TC 40 994 -12.0000 99.1000 TC 40 994 4 61
1973325S09091 1974 127 SI WA ANNIE 1973-11-27 03:00:00 TS -11.8950 99.2950 40 994 bom main 863 839 ______O__P__P_ -1 -11.9000 99.3000 30 40 994 3.00000 -11.9324 99.2300 TC 40 994 -11.9324 99.2300 TC 40 994 4 63
1973325S09091 1974 127 SI WA ANNIE 1973-11-27 06:00:00 TS -11.8000 99.5000 40 994 bom main 839 816 ______O__O__O_ -1 -11.8000 99.5000 30 40 994 3.00000 -11.8000 99.5000 TC 40 994 -11.8000 99.5000 TC 40 994 5 65
1973325S09091 1974 127 SI WA ANNIE 1973-11-27 09:00:00 TS -11.7000 99.7233 40 994 bom main 816 784 ______O__P__P_ -1 -11.7000 99.7000 30 40 994 3.00000 -11.6999 99.7351 TC 40 994 -11.6999 99.7351 TC 40 994 5 68
1973325S09091 1974 127 SI WA ANNIE 1973-11-27 12:00:00 TS -11.6000 100.000 40 994 bom main 784 752 ______O__O__O_ -1 -11.6000 100.000 30 40 994 3.00000 -11.6000 100.000 TC 40 994 -11.6000 100.000 TC 40 994 6 69
1973325S09091 1974 127 SI WA ANNIE 1973-11-27 15:00:00 TS -11.4850 100.290 40 994 bom main 752 721 ______O__P__P_ -1 -11.5000 100.300 30 40 994 3.00000 -11.4775 100.285 TC 40 994 -11.4775 100.285 TC 40 994 6 71
1973325S09091 1974 127 SI WA ANNIE 1973-11-27 18:00:00 TS -11.4000 100.600 40 994 bom main 721 699 ______O__O__O_ -1 -11.4000 100.600 30 40 994 3.00000 -11.4000 100.600 TC 40 994 -11.4000 100.600 TC 40 994 6 82
1973325S09091 1974 127 SI WA ANNIE 1973-11-27 21:00:00 TS -11.3984 100.938 40 994 bom main 699 677 ______O__P__P_ -1 -11.4000 100.900 30 40 994 3.00000 -11.4500 101.057 TC 40 994 -11.4500 101.057 TC 40 994 7 98
1973325S09091 1974 127 SI WA ANNIE 1973-11-28 00:00:00 TS -11.4997 101.299 main 678 678 ______P__O__O_ -1 -11.4991 101.298 30 40 994 -11.5000 101.300 TC 40 994 -11.5000 101.300 TC 40 994 7 106
1973325S09091 1974 127 SI WA ANNIE 1973-11-28 00:01:00 TS -11.5005 101.301 40 994 bom main 678 671 ______O__O__O_ -1 -11.5000 101.300 30 40 994 3.00000 -11.5000 101.300 TC 40 994 -11.5000 101.300 TC 40 994 7 126
1973325S09091 1974 127 SI WA ANNIE 1973-11-28 03:00:00 TS -11.7033 101.592 40 993 bom main 676 676 ______O__P__P_ -1 -11.7000 101.600 30 40 993 3.00000 -11.6586 101.485 TC 42 992 -11.6586 101.485 TC 42 992 7 136
1973325S09091 1974 127 SI WA ANNIE 1973-11-28 06:00:00 TS -12.0000 101.800 40 991 bom main 691 691 ______O__O__O_ -1 -12.0000 101.800 30 40 991 3.00000 -12.0000 101.800 TC 45 991 -12.0000 101.800 TC 45 991 7 152
1973325S09091 1974 127 SI WA ANNIE 1973-11-28 09:00:00 TS -12.3233 101.925 45 990 bom main 714 714 ______O__P__P_ -1 -12.3000 101.900 30 45 990 3.00000 -12.3351 101.938 TC 45 990 -12.3351 101.938 TC 45 990 7 165
1973325S09091 1974 127 SI WA ANNIE 1973-11-28 12:00:00 TS -12.7000 102.000 45 990 bom main 748 748 ______O__O__O_ -1 -12.7000 102.000 30 45 990 3.00000 -12.7000 102.000 TC 45 990 -12.7000 102.000 TC 45 990 7 173
1973325S09091 1974 127 SI WA ANNIE 1973-11-28 15:00:00 TS -13.0383 102.010 45 990 bom main 777 777 ______O__P__P_ -1 -13.0000 102.000 30 45 990 3.00000 -13.0575 102.015 TC 47 989 -13.0575 102.015 TC 47 989 7 0
1973325S09091 1974 127 SI WA ANNIE 1973-11-28 18:00:00 TS -13.4000 102.000 45 989 bom main 818 818 ______O__O__O_ -1 -13.4000 102.000 30 45 989 3.00000 -13.4000 102.000 TC 50 989 -13.4000 102.000 TC 50 989 7 0
1973325S09091 1974 127 SI WA ANNIE 1973-11-28 21:00:00 TS -13.7100 101.995 45 989 bom main 848 848 ______O__P__P_ -1 -13.7000 102.000 30 45 989 3.00000 -13.8015 102.000 TC 50 988 -13.8015 102.000 TC 50 988 6 183
1973325S09091 1974 127 SI WA ANNIE 1973-11-29 00:00:00 TS -13.9994 102.000 main 879 879 ______P__O__O_ -1 -13.9983 102.000 30 49 988 -14.0000 102.000 TC 50 988 -14.0000 102.000 TC 50 988 6 0
1973325S09091 1974 127 SI WA ANNIE 1973-11-29 00:01:00 TS -14.0010 102.000 50 988 bom main 879 879 ______O__O__O_ -1 -14.0000 102.000 30 50 988 3.50000 -14.0000 102.000 TC 50 988 -14.0000 102.000 TC 50 988 6 169
1973325S09091 1974 127 SI WA ANNIE 1973-11-29 03:00:00 TS -14.2767 102.062 50 986 bom main 904 904 ______O__P__P_ -1 -14.3000 102.100 30 50 986 3.50000 -14.1745 102.034 TC 52 986 -14.1745 102.034 TC 52 986 5 169
1973325S09091 1974 127 SI WA ANNIE 1973-11-29 06:00:00 TS -14.5000 102.100 50 984 bom main 923 923 ______O__O__O_ -1 -14.5000 102.100 30 50 984 3.50000 -14.5000 102.100 TC 55 984 -14.5000 102.100 TC 55 984 5 167
1973325S09091 1974 127 SI WA ANNIE 1973-11-29 09:00:00 TS -14.7150 102.162 55 983 bom main 937 937 ______O__P__P_ -1 -14.7000 102.200 30 55 983 4.00000 -14.7226 102.143 TC 55 983 -14.7226 102.143 TC 55 983 4 167
1973325S09091 1974 127 SI WA ANNIE 1973-11-29 12:00:00 TS -14.9000 102.200 55 983 bom main 956 956 ______O__O__O_ -1 -14.9000 102.200 30 55 983 4.00000 -14.9000 102.200 TC 55 983 -14.9000 102.200 TC 55 983 3 156
1973325S09091 1974 127 SI WA ANNIE 1973-11-29 15:00:00 TS -15.0100 102.300 55 983 bom main 961 961 ______O__P__P_ -1 -15.0000 102.300 30 55 983 4.00000 -15.0150 102.300 TC 55 982 -15.0150 102.300 TC 57 982 3 136
1973325S09091 1974 127 SI WA ANNIE 1973-11-29 18:00:00 TS -15.1000 102.400 55 982 bom main 966 966 ______O__O__O_ -1 -15.1000 102.400 30 55 982 4.00000 -15.1000 102.400 TC 55 982 -15.1000 102.400 TC 60 982 2 147
1973325S09091 1974 127 SI WA ANNIE 1973-11-29 21:00:00 TS -15.1950 102.423 55 982 bom main 976 976 ______O__P__P_ -1 -15.2000 102.400 30 55 982 4.00000 -15.2320 102.471 TC 57 981 -15.2320 102.471 TC 60 981 2 153
1973325S09091 1974 127 SI WA ANNIE 1973-11-30 00:00:00 TS -15.2998 102.500 main 981 981 ______P__O__O_ -1 -15.2994 102.499 30 55 981 -15.3000 102.500 TC 60 981 -15.3000 102.500 TC 60 981 3 144
1973325S09091 1974 127 SI WA ANNIE 1973-11-30 00:01:00 TS -15.3005 102.500 55 981 bom main 981 976 ______O__O__O_ -1 -15.3000 102.500 30 55 981 4.00000 -15.3000 102.500 TC 60 981 -15.3000 102.500 TC 60 981 4 126
1973325S09091 1974 127 SI WA ANNIE 1973-11-30 03:00:00 TS -15.4283 102.680 55 982 bom main 982 982 ______O__P__P_ -1 -15.4000 102.700 30 55 982 4.00000 -15.4015 102.630 TC 60 981 -15.4015 102.630 TC 60 981 5 128
1973325S09091 1974 127 SI WA ANNIE 1973-11-30 06:00:00 TS -15.6000 102.900 55 981 bom main 994 994 ______O__O__O_ -1 -15.6000 102.900 30 55 981 4.00000 -15.6000 102.900 TC 60 981 -15.6000 102.900 TC 60 981 6 130
1973325S09091 1974 127 SI WA ANNIE 1973-11-30 09:00:00 TS -15.7917 103.128 55 982 bom main 1006 1003 ______O__P__P_ -1 -15.8000 103.100 30 55 982 4.00000 -15.7875 103.142 TC 55 983 -15.7875 103.142 TC 57 983 6 122
1973325S09091 1974 127 SI WA ANNIE 1973-11-30 12:00:00 TS -15.9000 103.400 55 986 bom main 1006 985 ______O__O__O_ -1 -15.9000 103.400 30 55 986 4.00000 -15.9000 103.400 TC 50 986 -15.9000 103.400 TC 55 986 5 94
1973325S09091 1974 127 SI WA ANNIE 1973-11-30 15:00:00 TS -15.8250 103.677 55 987 bom main 985 968 ______O__P__P_ -1 -15.8000 103.700 30 55 987 4.00000 -15.8375 103.665 TC 50 986 -15.8375 103.665 TC 55 986 5 67
1973325S09091 1974 127 SI WA ANNIE 1973-11-30 18:00:00 TS -15.7000 103.900 55 986 bom main 968 951 ______O__O__O_ -1 -15.7000 103.900 30 55 986 4.00000 -15.7000 103.900 TC 50 986 -15.7000 103.900 TC 55 986 5 61
1973325S09091 1974 127 SI WA ANNIE 1973-11-30 21:00:00 TS -15.6050 104.097 55 986 bom main 951 938 ______O__P__P_ -1 -15.6000 104.100 30 55 986 4.00000 -15.5680 104.109 TC 50 987 -15.5680 104.109 TC 52 987 4 55
1973325S09091 1974 127 SI WA ANNIE 1973-12-01 00:00:00 TS -15.5002 104.200 main 938 938 ______P__O__O_ -1 -15.5006 104.200 30 55 987 -15.5000 104.200 TC 50 988 -15.5000 104.200 TC 50 988 3 42
1973325S09091 1974 127 SI WA ANNIE 1973-12-01 00:01:00 TS -15.4995 104.200 55 988 bom main 938 927 ______O__O__O_ -1 -15.5000 104.200 30 55 988 4.00000 -15.5000 104.200 TC 50 988 -15.5000 104.200 TC 50 988 3 12
1973325S09091 1974 127 SI WA ANNIE 1973-12-01 03:00:00 TS -15.3716 104.202 55 988 bom main 927 908 ______O__P__P_ -1 -15.4000 104.200 30 55 988 4.00000 -15.3985 104.182 TC 50 987 -15.3985 104.182 TC 50 987 3 343
1973325S09091 1974 127 SI WA ANNIE 1973-12-01 06:00:00 TS -15.2000 104.100 50 987 bom main 908 893 ______O__O__O_ -1 -15.2000 104.100 30 50 987 3.50000 -15.2000 104.100 TC 50 987 -15.2000 104.100 TC 50 987 5 322
1973325S09091 1974 127 SI WA ANNIE 1973-12-01 09:00:00 TS -15.0184 103.915 50 988 bom main 893 886 ______O__P__P_ -1 -15.0000 103.900 30 50 988 3.50000 -15.0275 103.922 TC 47 989 -15.0275 103.922 TC 47 989 5 308
1973325S09091 1974 127 SI WA ANNIE 1973-12-01 12:00:00 TS -14.9000 103.700 50 992 bom main 890 890 ______O__O__O_ -1 -14.9000 103.700 30 50 992 3.50000 -14.9000 103.700 TC 45 992 -14.9000 103.700 TC 45 992 4 289
1973325S09091 1974 127 SI WA ANNIE 1973-12-01 15:00:00 TS -14.8800 103.500 50 993 bom main 897 897 ______O__P__P_ -1 -14.9000 103.500 30 50 993 3.50000 -14.8700 103.500 TC 42 992 -14.8700 103.500 TC 42 992 4 270
1973325S09091 1974 127 SI WA ANNIE 1973-12-01 18:00:00 TS -14.9000 103.300 50 993 bom main 905 905 ______O__O__O_ -1 -14.9000 103.300 30 50 993 3.50000 -14.9000 103.300 TC 40 993 -14.9000 103.300 TC 40 993 4 258
1973325S09091 1974 127 SI WA ANNIE 1973-12-01 21:00:00 TS -14.9616 103.110 50 992 bom main 924 924 ______O__P__P_ -1 -15.0000 103.100 30 50 992 3.50000 -14.9607 103.036 TC 40 993 -14.9607 103.036 TC 40 993 4 255
1973325S09091 1974 127 SI WA ANNIE 1973-12-02 00:00:00 TS -14.9999 102.900 main 932 932 ______P__O__O_ -1 -14.9998 102.901 30 45 993 -15.0000 102.900 TC 40 994 -15.0000 102.900 TC 40 994 4 259
1973325S09091 1974 127 SI WA ANNIE 1973-12-02 00:01:00 TS -15.0002 102.899 45 994 bom main 932 932 ______O__O__O_ -1 -15.0000 102.900 30 45 994 3.00000 -15.0000 102.900 TC 40 994 -15.0000 102.900 TC 40 994 6 258
1973325S09091 1974 127 SI WA ANNIE 1973-12-02 03:00:00 TS -15.0617 102.610 40 994 bom main 956 956 ______O__P__P_ -1 -15.1000 102.600 30 40 994 3.00000 -15.0286 102.697 TC 42 993 -15.0286 102.697 TC 42 993 6 260
1973325S09091 1974 127 SI WA ANNIE 1973-12-02 06:00:00 TS -15.1000 102.300 40 992 bom main 971 971 ______O__O__O_ -1 -15.1000 102.300 30 40 992 3.00000 -15.1000 102.300 TC 45 992 -15.1000 102.300 TC 45 992 6 257
1973325S09091 1974 127 SI WA ANNIE 1973-12-02 09:00:00 TS -15.1950 102.005 40 993 bom main 996 996 ______O__P__P_ -1 -15.2000 102.000 30 40 993 3.00000 -15.1924 102.007 TC 42 993 -15.1924 102.007 TC 42 993 6 251
1973325S09091 1974 127 SI WA ANNIE 1973-12-02 12:00:00 TS -15.3000 101.700 40 994 bom main 1022 1022 ______O__O__O_ -1 -15.3000 101.700 30 40 994 3.00000 -15.3000 101.700 TC 40 994 -15.3000 101.700 TC 40 994 6 252
1973325S09091 1974 127 SI WA ANNIE 1973-12-02 15:00:00 TS -15.3950 101.377 40 993 bom main 1048 1048 ______O__P__P_ -1 -15.4000 101.400 30 40 993 3.00000 -15.3924 101.365 TC 42 993 -15.3924 101.365 TC 42 993 7 254
1973325S09091 1974 127 SI WA ANNIE 1973-12-02 18:00:00 TS -15.5000 101.000 40 992 bom main 1076 1076 ______O__O__O_ -1 -15.5000 101.000 30 40 992 3.00000 -15.5000 101.000 TC 45 992 -15.5000 101.000 TC 45 992 8 252
1973325S09091 1974 127 SI WA ANNIE 1973-12-02 21:00:00 TS -15.6334 100.595 40 993 bom main 1105 1105 ______O__P__P_ -1 -15.6000 100.600 30 40 993 3.00000 -15.6929 100.477 TC 42 993 -15.6929 100.477 TC 42 993 8 249
1973325S09091 1974 127 SI WA ANNIE 1973-12-03 00:00:00 TS -15.7997 100.201 main 1145 1145 ______P__O__O_ -1 -15.7991 100.202 30 40 993 -15.8000 100.200 TC 40 994 -15.8000 100.200 TC 40 994 8 246
1973325S09091 1974 127 SI WA ANNIE 1973-12-03 00:01:00 TS -15.8005 100.199 40 994 bom main 1145 1145 ______O__O__O_ -1 -15.8000 100.200 30 40 994 3.00000 -15.8000 100.200 TC 40 994 -15.8000 100.200 TC 40 994 6 249
1973325S09091 1974 127 SI WA ANNIE 1973-12-03 03:00:00 TS -15.9099 99.8950 40 994 bom main 1171 1171 ______O__P__P_ -1 -15.9000 99.9000 30 40 994 3.00000 -15.8731 100.002 TC 40 994 -15.8731 100.002 TC 40 994 6 251
1973325S09091 1974 127 SI WA ANNIE 1973-12-03 06:00:00 TS -16.0000 99.6000 40 994 bom main 1197 1197 ______O__O__O_ -1 -16.0000 99.6000 30 40 994 3.00000 -16.0000 99.6000 TC 40 994 -16.0000 99.6000 TC 40 994 6 258
1973325S09091 1974 127 SI WA ANNIE 1973-12-03 09:00:00 TS -16.0433 99.2667 40 994 bom main 1214 1214 ______O__P__P_ -1 -16.0000 99.3000 30 40 994 3.00000 -16.0651 99.2499 TC 40 994 -16.0651 99.2499 TC 40 994 7 262
1973325S09091 1974 127 SI WA ANNIE 1973-12-03 12:00:00 TS -16.1000 98.9000 40 994 bom main 1247 1247 ______O__O__O_ -1 -16.1000 98.9000 30 40 994 3.00000 -16.1000 98.9000 TC 40 994 -16.1000 98.9000 TC 40 994 6 265
1973325S09091 1974 127 SI WA ANNIE 1973-12-03 15:00:00 TS -16.0999 98.6049 40 994 bom main 1265 1265 ______O__P__P_ -1 -16.1000 98.6000 30 40 994 3.00000 -16.0999 98.6074 TC 40 994 -16.0999 98.6074 TC 40 994 6 270
1973325S09091 1974 127 SI WA ANNIE 1973-12-03 18:00:00 TS -16.1000 98.3000 40 994 bom main 1284 1284 ______O__O__O_ -1 -16.1000 98.3000 30 40 994 3.00000 -16.1000 98.3000 TC 40 994 -16.1000 98.3000 TC 40 994 7 264
1973325S09091 1974 127 SI WA ANNIE 1973-12-03 21:00:00 TS -16.1666 97.9250 40 994 bom main 1319 1319 ______O__P__P_ -1 -16.2000 97.9000 30 40 994 3.00000 -16.1609 97.7827 TC 40 994 -16.1609 97.7827 TC 40 994 8 263
1973325S09091 1974 127 SI WA ANNIE 1973-12-04 00:00:00 TS -16.2000 97.5008 main 1345 1345 ______P__O__O_ -1 -16.2001 97.5025 30 40 994 -16.2000 97.5000 TC 40 994 -16.2000 97.5000 TC 40 994 8 265
1973325S09091 1974 127 SI WA ANNIE 1973-12-04 00:01:00 TS -16.2001 97.4983 40 994 bom main 1345 1345 ______O__O__O_ -1 -16.2000 97.5000 30 40 994 3.00000 -16.2000 97.5000 TC 40 994 -16.2000 97.5000 TC 40 994 10 269
1973325S09091 1974 127 SI WA ANNIE 1973-12-04 03:00:00 TS -16.2049 96.9966 40 994 bom main 1380 1380 ______O__P__P_ -1 -16.2000 97.0000 30 40 994 3.00000 -16.2002 97.1439 TC 40 994 -16.2002 97.1439 TC 40 994 11 270
1973325S09091 1974 127 SI WA ANNIE 1973-12-04 06:00:00 TS -16.2000 96.4000 40 994 bom main 1423 1423 ______O__O__O_ -1 -16.2000 96.4000 30 40 994 3.00000 -16.2000 96.4000 TC 40 994 -16.2000 96.4000 TC 40 994 12 270
1973325S09091 1974 127 SI WA ANNIE 1973-12-04 09:00:00 TS -16.1998 95.7683 35 995 bom main 1468 1468 ______O__P__P_ -1 -16.2000 95.8000 30 35 995 3.00000 -16.1996 95.7523 TC 35 996 -16.1996 95.7523 TC 35 996 13 270
1973325S09091 1974 127 SI WA ANNIE 1973-12-04 12:00:00 TS -16.2000 95.0000 30 999 bom main 1530 1530 ______O__O__O_ -1 -16.2000 95.0000 20 30 999 2.50000 -16.2000 95.0000 TC 30 999 -16.2000 95.0000 TC 30 999 16 270
1973325S09091 1974 127 SI WA ANNIE 1973-12-04 15:00:00 TS -16.2000 94.1200 30 1002 bom main 1602 1602 ______O__P__P_ -1 -16.2000 94.1000 20 30 1002 2.50000 -16.2000 94.1300 TC 30 1000 -16.2000 94.1300 TC 27 1000 17 270
1973325S09091 1974 127 SI WA ANNIE 1973-12-04 18:00:00 TS -16.2000 93.2000 30 1001 bom main 1677 1677 ______O__O__O_ -1 -16.2000 93.2000 20 30 1001 2.50000 -16.2000 93.2000 TC 30 1001 -16.2000 93.2000 TC 25 1001 18 270
1973325S09091 1974 127 SI WA ANNIE 1973-12-04 21:00:00 TS -16.1998 92.2950 30 1001 bom main 1748 1748 ______O__P__P_ -1 -16.2000 92.3000 20 30 1001 2.50000 -16.2009 92.0117 TC 27 1002 -16.2009 92.0117 TC 25 1002 17 270
1973325S09091 1974 127 SI WA ANNIE 1973-12-05 00:00:00 TS -16.2000 91.4017 main 1813 1813 ______P__O__O_ -1 -16.2000 91.4050 20 30 1002 -16.2000 91.4000 TC 25 1003 -16.2000 91.4000 TC 25 1003 17 270
1973325S09091 1974 127 SI WA ANNIE 1973-12-05 00:01:00 TS -16.2000 91.3966 30 1003 bom main 1813 1813 ______O__O__O_ -1 -16.2000 91.4000 20 30 1003 2.50000 -16.2000 91.4000 TC 25 1003 -16.2000 91.4000 TC 25 1003 17 270
1973325S09091 1974 127 SI WA ANNIE 1973-12-05 03:00:00 TS -16.1950 90.5033 30 1003 bom main 1866 1866 ______O__P__P_ -1 -16.2000 90.5000 20 30 1003 2.00000 -16.1958 90.7982 TC 27 1002 -16.1958 90.7982 TC 25 1002 16 270
1973325S09091 1974 127 SI MM ANNIE 1973-12-05 06:00:00 TS -16.2000 89.7000 25 1001 bom main 1911 1911 ______O__O__O_ -1 -16.2000 89.7000 20 25 1001 2.00000 -16.2000 89.7000 TC 30 1001 -16.2000 89.7000 TC 25 1001 14 269
1973325S09091 1974 127 SI MM ANNIE 1973-12-05 09:00:00 TS -16.2231 89.0600 25 1001 bom main 1947 1947 ______O__P__P_ -1 -16.2000 89.1000 20 25 1001 2.00000 -16.2346 89.0396 TC 27 1002 -16.2346 89.0396 TC 25 1002 12 265
1973325S09091 1974 127 SI MM ANNIE 1973-12-05 12:00:00 TS -16.3000 88.5000 25 1003 bom main 1993 1993 ______O__O__O_ -1 -16.3000 88.5000 20 25 1003 2.00000 -16.3000 88.5000 TC 25 1003 -16.3000 88.5000 TC 25 1003 10 260
1973325S09091 1974 127 SI MM ANNIE 1973-12-05 15:00:00 TS -16.3949 88.0034 25 1003 bom main 2034 2034 ______O__P__P_ -1 -16.4000 88.0000 20 25 1003 2.00000 -16.3924 88.0050 TC 25 1002 -16.3924 88.0050 TC 25 1002 9 257
1973325S09091 1974 127 SI MM ANNIE 1973-12-05 18:00:00 TS -16.5000 87.6000 25 1002 bom main 2068 2068 ______O__O__O_ -1 -16.5000 87.6000 20 25 1002 2.00000 -16.5000 87.6000 TC 25 1002 -16.5000 87.6000 TC 25 1002 7 254
1973325S09091 1974 127 SI MM ANNIE 1973-12-05 21:00:00 TS -16.5949 87.2700 25 1002 bom main 2097 2097 ______O__P__P_ -1 -16.6000 87.3000 20 25 1002 2.00000 -16.6321 87.1878 TC 25 1002 -16.6321 87.1878 TC 25 1002 6 251
1973325S09091 1974 127 SI MM ANNIE 1973-12-06 00:00:00 TS -16.6998 87.0005 main 2126 2126 ______P__O__O_ -1 -16.6994 87.0014 20 25 1002 -16.7000 87.0000 TC 25 1003 -16.7000 87.0000 TC 25 1003 6 248
1973325S09091 1974 127 SI MM ANNIE 1973-12-06 00:01:00 TS -16.7005 86.9992 25 1003 bom main 2126 2126 ______O__O__O_ -1 -16.7000 87.0000 20 25 1003 2.00000 -16.7000 87.0000 TC 25 1003 -16.7000 87.0000 TC 25 1003 4 233
1973325S09091 1974 127 SI MM ANNIE 1973-12-06 03:00:00 TS -16.8333 86.8133 25 1003 bom main 2148 2148 ______O__P__P_ -1 -16.8000 86.8000 20 25 1003 2.00000 -16.8069 86.8933 TC 25 1002 -16.8069 86.8933 TC 25 1002 4 224
1973325S09091 1974 127 SI MM ANNIE 1973-12-06 06:00:00 TS -17.0000 86.7000 25 1002 bom main 2172 2172 ______O__O__O_ -1 -17.0000 86.7000 20 25 1002 2.00000 -17.0000 86.7000 TC 25 1002 -17.0000 86.7000 TC 25 1002 3 218
1973325S09091 1974 127 SI MM ANNIE 1973-12-06 09:00:00 TS -17.1050 86.5900 25 1001 bom main 2187 2187 ______O__P__P_ -1 -17.1000 86.6000 20 25 1001 2.00000 -17.1076 86.5849 TC 25 1002 -17.1076 86.5849 TC 25 1002 3 224
1973325S09091 1974 127 SI MM ANNIE 1973-12-06 12:00:00 TS -17.2000 86.5000 25 1003 bom main 2203 2203 ______O__O__O_ -1 -17.2000 86.5000 20 25 1003 2.00000 -17.2000 86.5000 TC 25 1003 -17.2000 86.5000 TC 25 1003 2 213
1973325S09091 1974 127 SI MM ANNIE 1973-12-06 15:00:00 TS -17.2950 86.4616 25 1004 bom main 2211 2211 ______O__P__P_ -1 -17.3000 86.5000 20 25 1004 1.50000 -17.2925 86.4425 TC 22 1003 -17.2925 86.4425 TC 22 1003 2 207
1973325S09091 1974 127 SI MM ANNIE 1973-12-06 18:00:00 TS -17.4000 86.4000 25 1004 bom main 2227 2227 ______O__O__O_ -1 -17.4000 86.4000 20 25 1004 1.50000 -17.4000 86.4000 TC 20 1004 -17.4000 86.4000 TC 20 1004 2 198
1973325S09091 1974 127 SI MM ANNIE 1973-12-06 21:00:00 TS -17.5233 86.3766 25 1005 bom main 2235 2235 ______O__P__P_ -1 -17.5000 86.4000 20 25 1005 1.50000 -17.5927 86.3340 TC 20 1004 -17.5927 86.3340 TC 20 1004 3 197
1973325S09091 1974 127 SI MM ANNIE 1973-12-07 00:00:00 TS -17.6996 86.3002 main 2259 2259 ______P__O__O_ -1 -17.6988 86.3006 20 25 1005 -17.7000 86.3000 TC 20 1005 -17.7000 86.3000 TC 20 1005 4 201
1973325S09091 1974 127 SI MM ANNIE 1973-12-07 00:01:00 TS -17.7007 86.2996 25 1005 bom main 2259 2259 ______O__O__O_ -1 -17.7000 86.3000 20 25 1005 1.50000 -17.7000 86.3000 TC 20 1005 -17.7000 86.3000 TC 20 1005 5 212
1973325S09091 1974 127 SI MM ANNIE 1973-12-07 03:00:00 TS -17.8950 86.1717 25 1005 bom main 2284 2284 ______O__P__P_ -1 -17.9000 86.2000 20 25 1005 1.50000 -17.8353 86.1933 TC 20 1004 -17.8353 86.1933 TC 20 1004 5 216
1973325S09091 1974 127 SI MM ANNIE 1973-12-07 06:00:00 TS -18.1000 86.0000 25 1004 bom main 2314 2314 ______O__O__O_ -1 -18.1000 86.0000 20 25 1004 1.50000 -18.1000 86.0000 TC 20 1004 -18.1000 86.0000 TC 20 1004 5 212
1973325S09091 1974 127 SI MM ANNIE 1973-12-07 09:00:00 TS -18.3050 85.9049 25 1003 bom main 2338 2338 ______O__P__P_ -1 -18.3000 85.9000 20 25 1003 1.50000 -18.3075 85.9073 TC 20 1004 -18.3075 85.9073 TC 20 1004 4 205
1973325S09091 1974 127 SI MM ANNIE 1973-12-07 12:00:00 TS -18.5000 85.8000 20 1005 bom main 2362 2362 ______O__O__O_ -1 -18.5000 85.8000 20 20 1005 1.00000 -18.5000 85.8000 TC 20 1005 -18.5000 85.8000 TC 20 1005 5 217
1973325S09091 1974 127 SI MM ANNIE 1973-12-07 15:00:00 TS -18.6767 85.6100 20 1007 bom main 2393 2393 ______O__P__P_ -1 -18.7000 85.6000 20 20 1007 1.00000 -18.6650 85.6150 TC 17 1005 -18.6650 85.6150 TC 17 1005 5 232
1973325S09091 1974 127 SI MM ANNIE 1973-12-07 18:00:00 TS -18.8000 85.4000 20 1006 bom main 2415 2415 ______O__O__O_ -1 -18.8000 85.4000 20 20 1006 1.00000 -18.8000 85.4000 TC 15 1006 -18.8000 85.4000 TC 15 1006 5 240
1973325S09091 1974 127 SI MM ANNIE 1973-12-07 21:00:00 TS -18.9050 85.1967 20 1007 bom main 2437 2437 ______O__P__P_ -1 -18.9000 85.2000 20 20 1007 1.00000 -18.9375 85.1360 TC 15 1007 -18.9375 85.1360 TC 12 1007 4 242
1973325S09091 1974 127 SI MM ANNIE 1973-12-08 00:00:00 TS -18.9998 85.0004 main 2459 2459 ______P__O__O_ -1 -18.9994 85.0011 20 20 1007 -19.0000 85.0000 TC 15 1008 -19.0000 85.0000 TC 10 1008 4 243
1973325S09091 1974 127 SI MM ANNIE 1973-12-08 00:01:00 TS -19.0003 84.9993 20 1008 bom main 2459 ______O__O__O_ -1 -19.0000 85.0000 20 20 1008 1.00000 -19.0000 85.0000 TC 15 1008 -19.0000 85.0000 TC 10 1008 4 0

IBTrACS Databaseについて

本データベースは、米国NOAAが公開する1842年以降の世界の熱帯低気圧のベストトラックデータアーカイブInternational Best Track Archive for Climate Stewardship (IBTrACS)を、ウェブで閲覧しやすい形式に変換したものです。

最終更新日:2021-10-21